sensor_id;sensor_type;location;lat;lon;timestamp;temperature;humidity
45765;DHT22;31474;45.332;10.230;2022-09-06T00:01:16;24.20;99.90
45765;DHT22;31474;45.332;10.230;2022-09-06T00:03:43;24.20;99.90
45765;DHT22;31474;45.332;10.230;2022-09-06T00:06:13;24.10;99.90
45765;DHT22;31474;45.332;10.230;2022-09-06T00:08:39;24.20;99.90
45765;DHT22;31474;45.332;10.230;2022-09-06T00:11:06;24.10;99.90
45765;DHT22;31474;45.332;10.230;2022-09-06T00:13:32;24.00;99.90
45765;DHT22;31474;45.332;10.230;2022-09-06T00:18:31;24.00;99.90
45765;DHT22;31474;45.332;10.230;2022-09-06T00:20:57;24.10;99.90
45765;DHT22;31474;45.332;10.230;2022-09-06T00:23:22;24.10;99.90
45765;DHT22;31474;45.332;10.230;2022-09-06T00:25:48;24.00;99.90
45765;DHT22;31474;45.332;10.230;2022-09-06T00:28:15;24.00;99.90
45765;DHT22;31474;45.332;10.230;2022-09-06T00:30:40;23.90;99.90
45765;DHT22;31474;45.332;10.230;2022-09-06T00:33:06;23.90;99.90
45765;DHT22;31474;45.332;10.230;2022-09-06T00:35:32;23.80;99.90
45765;DHT22;31474;45.332;10.230;2022-09-06T00:37:59;23.80;99.90
45765;DHT22;31474;45.332;10.230;2022-09-06T00:40:26;23.80;99.90
45765;DHT22;31474;45.332;10.230;2022-09-06T00:42:54;23.80;99.90
45765;DHT22;31474;45.332;10.230;2022-09-06T00:45:21;23.90;99.90
45765;DHT22;31474;45.332;10.230;2022-09-06T00:47:47;23.80;99.90
45765;DHT22;31474;45.332;10.230;2022-09-06T00:50:15;23.80;99.90
45765;DHT22;31474;45.332;10.230;2022-09-06T00:52:42;23.90;99.90
45765;DHT22;31474;45.332;10.230;2022-09-06T00:55:09;23.80;99.90
45765;DHT22;31474;45.332;10.230;2022-09-06T00:57:35;23.80;99.90
45765;DHT22;31474;45.332;10.230;2022-09-06T01:00:04;23.80;99.90
45765;DHT22;31474;45.332;10.230;2022-09-06T01:02:30;23.70;99.90
45765;DHT22;31474;45.332;10.230;2022-09-06T01:04:56;23.70;99.90
45765;DHT22;31474;45.332;10.230;2022-09-06T01:07:50;23.70;99.90
45765;DHT22;31474;45.332;10.230;2022-09-06T01:32:31;23.70;99.90
45765;DHT22;31474;45.332;10.230;2022-09-06T01:37:40;23.70;99.90
45765;DHT22;31474;45.332;10.230;2022-09-06T01:40:06;23.70;99.90
45765;DHT22;31474;45.332;10.230;2022-09-06T01:42:32;23.70;99.90
45765;DHT22;31474;45.332;10.230;2022-09-06T01:45:19;23.60;99.90
45765;DHT22;31474;45.332;10.230;2022-09-06T01:50:41;23.50;99.90
45765;DHT22;31474;45.332;10.230;2022-09-06T02:01:21;23.50;99.90
45765;DHT22;31474;45.332;10.230;2022-09-06T02:06:26;23.40;99.90
45765;DHT22;31474;45.332;10.230;2022-09-06T02:09:02;23.50;99.90
45765;DHT22;31474;45.332;10.230;2022-09-06T02:11:42;23.50;99.90
45765;DHT22;31474;45.332;10.230;2022-09-06T02:14:15;23.50;99.90
45765;DHT22;31474;45.332;10.230;2022-09-06T02:16:43;23.50;99.90
45765;DHT22;31474;45.332;10.230;2022-09-06T02:19:24;23.50;99.90
45765;DHT22;31474;45.332;10.230;2022-09-06T02:21:53;23.40;99.90
45765;DHT22;31474;45.332;10.230;2022-09-06T02:24:22;23.50;99.90
45765;DHT22;31474;45.332;10.230;2022-09-06T02:26:50;23.50;99.90
45765;DHT22;31474;45.332;10.230;2022-09-06T02:29:16;23.50;99.90
45765;DHT22;31474;45.332;10.230;2022-09-06T02:32:13;23.60;99.90
45765;DHT22;31474;45.332;10.230;2022-09-06T02:34:39;23.60;99.90
45765;DHT22;31474;45.332;10.230;2022-09-06T02:37:06;23.50;99.90
45765;DHT22;31474;45.332;10.230;2022-09-06T02:39:32;23.50;99.90
45765;DHT22;31474;45.332;10.230;2022-09-06T02:41:57;23.50;99.90
45765;DHT22;31474;45.332;10.230;2022-09-06T02:44:23;23.50;99.90
45765;DHT22;31474;45.332;10.230;2022-09-06T02:46:49;23.50;99.90
45765;DHT22;31474;45.332;10.230;2022-09-06T02:49:15;23.50;99.90
45765;DHT22;31474;45.332;10.230;2022-09-06T02:51:40;23.50;99.90
45765;DHT22;31474;45.332;10.230;2022-09-06T02:54:06;23.50;99.90
45765;DHT22;31474;45.332;10.230;2022-09-06T02:56:32;23.60;99.90
45765;DHT22;31474;45.332;10.230;2022-09-06T02:59:02;23.60;99.90
45765;DHT22;31474;45.332;10.230;2022-09-06T03:01:30;23.50;99.90
45765;DHT22;31474;45.332;10.230;2022-09-06T03:03:56;23.50;99.90
45765;DHT22;31474;45.332;10.230;2022-09-06T03:06:22;23.50;99.90
45765;DHT22;31474;45.332;10.230;2022-09-06T03:08:48;23.60;99.90
45765;DHT22;31474;45.332;10.230;2022-09-06T03:11:13;23.60;99.90
45765;DHT22;31474;45.332;10.230;2022-09-06T03:13:39;23.50;99.90
45765;DHT22;31474;45.332;10.230;2022-09-06T03:16:05;23.50;99.90
45765;DHT22;31474;45.332;10.230;2022-09-06T03:18:31;23.50;99.90
45765;DHT22;31474;45.332;10.230;2022-09-06T03:20:57;23.50;99.90
45765;DHT22;31474;45.332;10.230;2022-09-06T03:23:25;23.50;99.90
45765;DHT22;31474;45.332;10.230;2022-09-06T03:25:51;23.50;99.90
45765;DHT22;31474;45.332;10.230;2022-09-06T03:28:18;23.50;99.90
45765;DHT22;31474;45.332;10.230;2022-09-06T03:30:45;23.50;99.90
45765;DHT22;31474;45.332;10.230;2022-09-06T03:33:12;23.50;99.90
45765;DHT22;31474;45.332;10.230;2022-09-06T03:35:38;23.50;99.90
45765;DHT22;31474;45.332;10.230;2022-09-06T03:38:04;23.50;99.90
45765;DHT22;31474;45.332;10.230;2022-09-06T03:40:30;23.40;99.90
45765;DHT22;31474;45.332;10.230;2022-09-06T03:42:55;23.40;99.90
45765;DHT22;31474;45.332;10.230;2022-09-06T03:45:21;23.40;99.90
45765;DHT22;31474;45.332;10.230;2022-09-06T03:47:47;23.40;99.90
45765;DHT22;31474;45.332;10.230;2022-09-06T03:50:13;23.40;99.90
45765;DHT22;31474;45.332;10.230;2022-09-06T03:52:39;23.40;99.90
45765;DHT22;31474;45.332;10.230;2022-09-06T03:55:05;23.30;99.90
45765;DHT22;31474;45.332;10.230;2022-09-06T03:57:31;23.30;99.90
45765;DHT22;31474;45.332;10.230;2022-09-06T03:59:57;23.20;99.90
45765;DHT22;31474;45.332;10.230;2022-09-06T04:02:22;23.20;99.90
45765;DHT22;31474;45.332;10.230;2022-09-06T04:04:48;23.20;99.90
45765;DHT22;31474;45.332;10.230;2022-09-06T04:07:14;23.10;99.90
45765;DHT22;31474;45.332;10.230;2022-09-06T04:09:39;23.10;99.90
45765;DHT22;31474;45.332;10.230;2022-09-06T04:12:05;23.10;99.90
45765;DHT22;31474;45.332;10.230;2022-09-06T04:14:31;23.10;99.90
45765;DHT22;31474;45.332;10.230;2022-09-06T04:16:56;23.10;99.90
45765;DHT22;31474;45.332;10.230;2022-09-06T04:19:22;23.10;99.90
45765;DHT22;31474;45.332;10.230;2022-09-06T04:21:48;23.00;99.90
45765;DHT22;31474;45.332;10.230;2022-09-06T04:24:13;23.00;99.90
45765;DHT22;31474;45.332;10.230;2022-09-06T04:26:39;23.00;99.90
45765;DHT22;31474;45.332;10.230;2022-09-06T04:29:05;22.90;99.90
45765;DHT22;31474;45.332;10.230;2022-09-06T04:31:31;22.90;99.90
45765;DHT22;31474;45.332;10.230;2022-09-06T04:33:56;22.90;99.90
45765;DHT22;31474;45.332;10.230;2022-09-06T04:36:22;22.90;99.90
45765;DHT22;31474;45.332;10.230;2022-09-06T04:38:48;22.90;99.90
45765;DHT22;31474;45.332;10.230;2022-09-06T04:41:15;22.90;99.90
45765;DHT22;31474;45.332;10.230;2022-09-06T04:43:41;22.80;99.90
45765;DHT22;31474;45.332;10.230;2022-09-06T04:46:22;22.80;99.90
45765;DHT22;31474;45.332;10.230;2022-09-06T04:48:49;22.80;99.90
45765;DHT22;31474;45.332;10.230;2022-09-06T04:51:15;22.80;99.90
45765;DHT22;31474;45.332;10.230;2022-09-06T04:53:41;22.80;99.90
45765;DHT22;31474;45.332;10.230;2022-09-06T04:56:12;22.80;99.90
45765;DHT22;31474;45.332;10.230;2022-09-06T04:58:38;22.80;99.90
45765;DHT22;31474;45.332;10.230;2022-09-06T05:01:03;22.80;99.90
45765;DHT22;31474;45.332;10.230;2022-09-06T05:03:29;22.80;99.90
45765;DHT22;31474;45.332;10.230;2022-09-06T05:06:11;22.80;99.90
45765;DHT22;31474;45.332;10.230;2022-09-06T05:08:38;22.80;99.90
45765;DHT22;31474;45.332;10.230;2022-09-06T05:11:05;22.90;99.90
45765;DHT22;31474;45.332;10.230;2022-09-06T05:13:31;22.80;99.90
45765;DHT22;31474;45.332;10.230;2022-09-06T05:16:05;22.80;99.90
45765;DHT22;31474;45.332;10.230;2022-09-06T05:18:31;22.90;99.90
45765;DHT22;31474;45.332;10.230;2022-09-06T05:20:57;22.90;99.90
45765;DHT22;31474;45.332;10.230;2022-09-06T05:23:23;23.00;99.90
45765;DHT22;31474;45.332;10.230;2022-09-06T05:25:49;23.00;99.90
45765;DHT22;31474;45.332;10.230;2022-09-06T05:28:16;23.10;99.90
45765;DHT22;31474;45.332;10.230;2022-09-06T05:30:42;23.10;99.90
45765;DHT22;31474;45.332;10.230;2022-09-06T05:33:08;23.20;99.90
45765;DHT22;31474;45.332;10.230;2022-09-06T05:35:34;23.20;99.90
45765;DHT22;31474;45.332;10.230;2022-09-06T05:38:00;23.30;99.90
45765;DHT22;31474;45.332;10.230;2022-09-06T05:40:25;23.30;99.90
45765;DHT22;31474;45.332;10.230;2022-09-06T05:42:51;23.40;99.90
45765;DHT22;31474;45.332;10.230;2022-09-06T05:45:17;23.50;99.90
45765;DHT22;31474;45.332;10.230;2022-09-06T05:47:43;23.60;99.90
45765;DHT22;31474;45.332;10.230;2022-09-06T05:50:09;23.60;99.90
45765;DHT22;31474;45.332;10.230;2022-09-06T05:52:35;23.60;99.90
45765;DHT22;31474;45.332;10.230;2022-09-06T05:55:02;23.70;99.90
45765;DHT22;31474;45.332;10.230;2022-09-06T05:57:28;23.70;99.90
45765;DHT22;31474;45.332;10.230;2022-09-06T05:59:54;23.70;99.90
45765;DHT22;31474;45.332;10.230;2022-09-06T06:02:20;23.80;99.90
45765;DHT22;31474;45.332;10.230;2022-09-06T06:04:46;23.90;99.90
45765;DHT22;31474;45.332;10.230;2022-09-06T06:07:12;24.00;99.90
45765;DHT22;31474;45.332;10.230;2022-09-06T06:09:38;24.10;99.90
45765;DHT22;31474;45.332;10.230;2022-09-06T06:12:04;24.20;99.90
45765;DHT22;31474;45.332;10.230;2022-09-06T06:14:29;24.40;99.90
45765;DHT22;31474;45.332;10.230;2022-09-06T06:16:55;24.50;99.90
45765;DHT22;31474;45.332;10.230;2022-09-06T06:19:21;24.60;99.90
45765;DHT22;31474;45.332;10.230;2022-09-06T06:21:46;24.70;99.90
45765;DHT22;31474;45.332;10.230;2022-09-06T06:24:12;24.80;99.90
45765;DHT22;31474;45.332;10.230;2022-09-06T06:26:38;24.90;99.90
45765;DHT22;31474;45.332;10.230;2022-09-06T06:29:04;25.00;99.90
45765;DHT22;31474;45.332;10.230;2022-09-06T06:31:33;25.10;99.90
45765;DHT22;31474;45.332;10.230;2022-09-06T06:33:59;25.30;99.90
45765;DHT22;31474;45.332;10.230;2022-09-06T06:36:27;25.30;99.90
45765;DHT22;31474;45.332;10.230;2022-09-06T06:38:56;25.40;99.90
45765;DHT22;31474;45.332;10.230;2022-09-06T06:41:27;25.50;99.90
45765;DHT22;31474;45.332;10.230;2022-09-06T06:43:58;25.60;99.90
45765;DHT22;31474;45.332;10.230;2022-09-06T06:46:35;25.70;99.90
45765;DHT22;31474;45.332;10.230;2022-09-06T06:49:02;25.90;99.90
45765;DHT22;31474;45.332;10.230;2022-09-06T06:51:30;25.90;99.90
45765;DHT22;31474;45.332;10.230;2022-09-06T06:53:56;25.90;99.90
45765;DHT22;31474;45.332;10.230;2022-09-06T06:56:27;26.10;99.90
45765;DHT22;31474;45.332;10.230;2022-09-06T06:58:56;26.30;99.90
45765;DHT22;31474;45.332;10.230;2022-09-06T07:01:23;26.40;99.90
45765;DHT22;31474;45.332;10.230;2022-09-06T07:03:49;26.60;99.90
45765;DHT22;31474;45.332;10.230;2022-09-06T07:06:16;26.70;99.90
45765;DHT22;31474;45.332;10.230;2022-09-06T07:08:42;26.70;99.90
45765;DHT22;31474;45.332;10.230;2022-09-06T07:11:09;26.80;99.90
45765;DHT22;31474;45.332;10.230;2022-09-06T07:13:36;26.80;99.90
45765;DHT22;31474;45.332;10.230;2022-09-06T07:16:16;26.90;99.90
45765;DHT22;31474;45.332;10.230;2022-09-06T07:18:42;27.00;99.90
45765;DHT22;31474;45.332;10.230;2022-09-06T07:21:17;27.10;99.90
45765;DHT22;31474;45.332;10.230;2022-09-06T07:23:44;27.20;99.90
45765;DHT22;31474;45.332;10.230;2022-09-06T07:26:18;27.30;99.90
45765;DHT22;31474;45.332;10.230;2022-09-06T07:28:45;27.30;99.90
45765;DHT22;31474;45.332;10.230;2022-09-06T07:31:13;27.30;99.90
45765;DHT22;31474;45.332;10.230;2022-09-06T07:33:39;27.30;99.90
45765;DHT22;31474;45.332;10.230;2022-09-06T07:36:06;27.40;99.90
45765;DHT22;31474;45.332;10.230;2022-09-06T07:38:33;27.40;99.90
45765;DHT22;31474;45.332;10.230;2022-09-06T07:41:02;27.40;99.90
45765;DHT22;31474;45.332;10.230;2022-09-06T07:43:28;27.40;99.90
45765;DHT22;31474;45.332;10.230;2022-09-06T07:46:14;27.50;99.90
45765;DHT22;31474;45.332;10.230;2022-09-06T07:48:41;27.70;99.90
45765;DHT22;31474;45.332;10.230;2022-09-06T07:51:13;27.90;99.90
45765;DHT22;31474;45.332;10.230;2022-09-06T07:53:40;28.00;99.90
45765;DHT22;31474;45.332;10.230;2022-09-06T07:56:08;28.00;99.90
45765;DHT22;31474;45.332;10.230;2022-09-06T07:58:35;28.00;99.90
45765;DHT22;31474;45.332;10.230;2022-09-06T08:01:35;28.00;99.90
45765;DHT22;31474;45.332;10.230;2022-09-06T08:04:11;28.10;99.90
45765;DHT22;31474;45.332;10.230;2022-09-06T08:06:39;28.20;99.90
45765;DHT22;31474;45.332;10.230;2022-09-06T08:09:06;28.10;99.90
45765;DHT22;31474;45.332;10.230;2022-09-06T08:11:33;28.20;99.90
45765;DHT22;31474;45.332;10.230;2022-09-06T08:14:01;28.20;99.90
45765;DHT22;31474;45.332;10.230;2022-09-06T08:16:28;28.20;99.90
45765;DHT22;31474;45.332;10.230;2022-09-06T08:18:56;28.30;99.90
45765;DHT22;31474;45.332;10.230;2022-09-06T08:21:23;28.40;99.90
45765;DHT22;31474;45.332;10.230;2022-09-06T08:23:57;28.30;99.80
45765;DHT22;31474;45.332;10.230;2022-09-06T08:26:24;28.50;99.90
45765;DHT22;31474;45.332;10.230;2022-09-06T08:28:59;28.70;99.90
45765;DHT22;31474;45.332;10.230;2022-09-06T08:31:27;28.80;99.90
45765;DHT22;31474;45.332;10.230;2022-09-06T08:33:53;29.10;99.90
45765;DHT22;31474;45.332;10.230;2022-09-06T08:36:20;29.20;99.80
45765;DHT22;31474;45.332;10.230;2022-09-06T08:38:46;29.20;99.90
45765;DHT22;31474;45.332;10.230;2022-09-06T08:43:58;29.50;99.90
45765;DHT22;31474;45.332;10.230;2022-09-06T08:49:03;29.30;98.50
45765;DHT22;31474;45.332;10.230;2022-09-06T08:59:40;29.20;98.70
45765;DHT22;31474;45.332;10.230;2022-09-06T09:02:20;29.30;99.50
45765;DHT22;31474;45.332;10.230;2022-09-06T09:10:20;29.80;99.00
45765;DHT22;31474;45.332;10.230;2022-09-06T09:12:47;30.00;98.50
45765;DHT22;31474;45.332;10.230;2022-09-06T09:15:17;29.90;98.40
45765;DHT22;31474;45.332;10.230;2022-09-06T09:17:44;29.90;98.60
45765;DHT22;31474;45.332;10.230;2022-09-06T09:20:11;29.80;97.60
45765;DHT22;31474;45.332;10.230;2022-09-06T09:22:38;29.70;98.50
45765;DHT22;31474;45.332;10.230;2022-09-06T09:25:06;29.80;98.60
45765;DHT22;31474;45.332;10.230;2022-09-06T09:27:33;30.00;98.30
45765;DHT22;31474;45.332;10.230;2022-09-06T09:30:04;30.10;98.40
45765;DHT22;31474;45.332;10.230;2022-09-06T09:35:20;30.10;97.00
45765;DHT22;31474;45.332;10.230;2022-09-06T09:37:46;30.20;97.10
45765;DHT22;31474;45.332;10.230;2022-09-06T09:40:26;30.40;97.60
45765;DHT22;31474;45.332;10.230;2022-09-06T09:42:54;30.30;97.40
45765;DHT22;31474;45.332;10.230;2022-09-06T09:45:25;30.40;97.10
45765;DHT22;31474;45.332;10.230;2022-09-06T09:47:51;30.30;96.70
45765;DHT22;31474;45.332;10.230;2022-09-06T09:50:32;30.10;97.30
45765;DHT22;31474;45.332;10.230;2022-09-06T09:53:12;30.20;97.30
45765;DHT22;31474;45.332;10.230;2022-09-06T09:55:39;30.40;96.50
45765;DHT22;31474;45.332;10.230;2022-09-06T09:58:07;30.30;96.90
45765;DHT22;31474;45.332;10.230;2022-09-06T10:00:42;30.40;96.00
45765;DHT22;31474;45.332;10.230;2022-09-06T10:03:15;30.10;96.70
45765;DHT22;31474;45.332;10.230;2022-09-06T10:05:42;30.20;97.30
45765;DHT22;31474;45.332;10.230;2022-09-06T10:08:22;30.40;97.50
45765;DHT22;31474;45.332;10.230;2022-09-06T10:10:48;30.50;95.50
45765;DHT22;31474;45.332;10.230;2022-09-06T10:13:28;30.50;96.80
45765;DHT22;31474;45.332;10.230;2022-09-06T10:15:55;30.70;96.80
45765;DHT22;31474;45.332;10.230;2022-09-06T10:18:35;30.90;96.90
45765;DHT22;31474;45.332;10.230;2022-09-06T10:21:03;30.90;95.60
45765;DHT22;31474;45.332;10.230;2022-09-06T10:26:55;30.80;94.90
45765;DHT22;31474;45.332;10.230;2022-09-06T10:29:44;30.60;94.70
45765;DHT22;31474;45.332;10.230;2022-09-06T10:32:41;30.40;94.70
45765;DHT22;31474;45.332;10.230;2022-09-06T10:35:23;30.50;95.50
45765;DHT22;31474;45.332;10.230;2022-09-06T10:40:40;30.80;95.00
45765;DHT22;31474;45.332;10.230;2022-09-06T10:43:18;30.80;94.60
45765;DHT22;31474;45.332;10.230;2022-09-06T10:48:29;30.80;95.40
45765;DHT22;31474;45.332;10.230;2022-09-06T10:50:56;30.80;94.60
45765;DHT22;31474;45.332;10.230;2022-09-06T10:53:43;30.70;95.50
45765;DHT22;31474;45.332;10.230;2022-09-06T10:56:26;30.50;94.50
45765;DHT22;31474;45.332;10.230;2022-09-06T11:04:34;30.80;95.90
45765;DHT22;31474;45.332;10.230;2022-09-06T11:07:04;31.00;94.80
45765;DHT22;31474;45.332;10.230;2022-09-06T11:09:49;31.00;95.20
45765;DHT22;31474;45.332;10.230;2022-09-06T11:12:27;31.00;95.40
45765;DHT22;31474;45.332;10.230;2022-09-06T11:14:54;31.10;95.20
45765;DHT22;31474;45.332;10.230;2022-09-06T11:17:52;31.20;95.40
45765;DHT22;31474;45.332;10.230;2022-09-06T11:20:32;31.20;95.00
45765;DHT22;31474;45.332;10.230;2022-09-06T11:29:05;31.40;94.80
45765;DHT22;31474;45.332;10.230;2022-09-06T11:31:34;31.40;94.80
45765;DHT22;31474;45.332;10.230;2022-09-06T11:34:20;31.40;95.00
45765;DHT22;31474;45.332;10.230;2022-09-06T11:37:02;31.30;94.10
45765;DHT22;31474;45.332;10.230;2022-09-06T11:42:00;31.50;93.70
45765;DHT22;31474;45.332;10.230;2022-09-06T11:47:41;31.40;93.30
45765;DHT22;31474;45.332;10.230;2022-09-06T11:55:22;31.10;93.00
45765;DHT22;31474;45.332;10.230;2022-09-06T11:57:53;31.20;94.40
45765;DHT22;31474;45.332;10.230;2022-09-06T12:00:22;31.40;94.40
45765;DHT22;31474;45.332;10.230;2022-09-06T12:02:49;31.50;94.30
45765;DHT22;31474;45.332;10.230;2022-09-06T12:10:59;31.60;93.50
45765;DHT22;31474;45.332;10.230;2022-09-06T12:16:04;31.70;94.20
45765;DHT22;31474;45.332;10.230;2022-09-06T12:23:58;32.10;92.50
45765;DHT22;31474;45.332;10.230;2022-09-06T12:29:37;32.00;92.80
45765;DHT22;31474;45.332;10.230;2022-09-06T12:32:03;32.10;93.80
45765;DHT22;31474;45.332;10.230;2022-09-06T12:34:32;32.10;93.90
45765;DHT22;31474;45.332;10.230;2022-09-06T12:37:06;32.00;93.50
45765;DHT22;31474;45.332;10.230;2022-09-06T12:39:33;32.00;92.80
45765;DHT22;31474;45.332;10.230;2022-09-06T12:42:05;32.10;93.60
45765;DHT22;31474;45.332;10.230;2022-09-06T12:44:34;32.10;92.00
45765;DHT22;31474;45.332;10.230;2022-09-06T12:47:09;32.00;93.20
45765;DHT22;31474;45.332;10.230;2022-09-06T12:49:35;32.00;92.20
45765;DHT22;31474;45.332;10.230;2022-09-06T12:52:06;31.90;93.60
45765;DHT22;31474;45.332;10.230;2022-09-06T12:54:33;31.90;92.70
45765;DHT22;31474;45.332;10.230;2022-09-06T12:57:17;31.90;92.40
45765;DHT22;31474;45.332;10.230;2022-09-06T12:59:55;31.80;92.20
45765;DHT22;31474;45.332;10.230;2022-09-06T13:02:37;31.90;92.50
45765;DHT22;31474;45.332;10.230;2022-09-06T13:05:08;32.00;93.10
45765;DHT22;31474;45.332;10.230;2022-09-06T13:07:40;32.10;92.90
45765;DHT22;31474;45.332;10.230;2022-09-06T13:10:08;32.10;92.40
45765;DHT22;31474;45.332;10.230;2022-09-06T13:12:36;32.10;92.30
45765;DHT22;31474;45.332;10.230;2022-09-06T13:15:13;32.00;92.20
45765;DHT22;31474;45.332;10.230;2022-09-06T13:17:41;32.00;92.30
45765;DHT22;31474;45.332;10.230;2022-09-06T13:20:28;31.90;93.10
45765;DHT22;31474;45.332;10.230;2022-09-06T13:23:09;32.00;92.20
45765;DHT22;31474;45.332;10.230;2022-09-06T13:25:46;32.00;91.40
45765;DHT22;31474;45.332;10.230;2022-09-06T13:28:23;32.00;91.40
45765;DHT22;31474;45.332;10.230;2022-09-06T13:33:36;31.80;91.50
45765;DHT22;31474;45.332;10.230;2022-09-06T13:36:21;31.80;92.10
45765;DHT22;31474;45.332;10.230;2022-09-06T13:38:47;31.90;92.00
45765;DHT22;31474;45.332;10.230;2022-09-06T13:43:58;31.80;91.50
45765;DHT22;31474;45.332;10.230;2022-09-06T13:46:24;31.80;91.70
45765;DHT22;31474;45.332;10.230;2022-09-06T13:48:56;31.80;92.60
45765;DHT22;31474;45.332;10.230;2022-09-06T13:51:22;31.90;92.70
45765;DHT22;31474;45.332;10.230;2022-09-06T13:53:49;32.00;92.60
45765;DHT22;31474;45.332;10.230;2022-09-06T13:56:15;32.00;92.00
45765;DHT22;31474;45.332;10.230;2022-09-06T13:58:42;31.90;92.00
45765;DHT22;31474;45.332;10.230;2022-09-06T14:01:09;31.90;91.90
45765;DHT22;31474;45.332;10.230;2022-09-06T14:03:38;31.90;92.10
45765;DHT22;31474;45.332;10.230;2022-09-06T14:06:04;31.90;92.10
45765;DHT22;31474;45.332;10.230;2022-09-06T14:08:30;31.90;92.50
45765;DHT22;31474;45.332;10.230;2022-09-06T14:10:56;31.90;91.10
45765;DHT22;31474;45.332;10.230;2022-09-06T14:13:22;31.80;92.00
45765;DHT22;31474;45.332;10.230;2022-09-06T14:15:48;31.80;92.30
45765;DHT22;31474;45.332;10.230;2022-09-06T14:18:15;31.80;91.80
45765;DHT22;31474;45.332;10.230;2022-09-06T14:20:49;31.80;91.30
45765;DHT22;31474;45.332;10.230;2022-09-06T14:23:15;31.70;91.60
45765;DHT22;31474;45.332;10.230;2022-09-06T14:25:40;31.70;91.90
45765;DHT22;31474;45.332;10.230;2022-09-06T14:28:06;31.70;91.20
45765;DHT22;31474;45.332;10.230;2022-09-06T14:30:32;31.70;91.80
45765;DHT22;31474;45.332;10.230;2022-09-06T14:32:57;31.70;91.10
45765;DHT22;31474;45.332;10.230;2022-09-06T14:35:23;31.70;91.30
45765;DHT22;31474;45.332;10.230;2022-09-06T14:37:49;31.70;90.90
45765;DHT22;31474;45.332;10.230;2022-09-06T14:40:15;31.70;91.30
45765;DHT22;31474;45.332;10.230;2022-09-06T14:42:41;31.70;91.50
45765;DHT22;31474;45.332;10.230;2022-09-06T14:45:07;31.70;91.50
45765;DHT22;31474;45.332;10.230;2022-09-06T14:47:33;31.70;91.30
45765;DHT22;31474;45.332;10.230;2022-09-06T14:49:59;31.70;91.30
45765;DHT22;31474;45.332;10.230;2022-09-06T14:52:25;31.60;90.80
45765;DHT22;31474;45.332;10.230;2022-09-06T14:54:50;31.60;91.00
45765;DHT22;31474;45.332;10.230;2022-09-06T14:57:16;31.60;90.50
45765;DHT22;31474;45.332;10.230;2022-09-06T14:59:42;31.50;90.90
45765;DHT22;31474;45.332;10.230;2022-09-06T15:02:07;31.50;90.80
45765;DHT22;31474;45.332;10.230;2022-09-06T15:04:33;31.60;90.90
45765;DHT22;31474;45.332;10.230;2022-09-06T15:06:59;31.50;91.00
45765;DHT22;31474;45.332;10.230;2022-09-06T15:09:25;31.60;91.00
45765;DHT22;31474;45.332;10.230;2022-09-06T15:11:51;31.60;90.90
45765;DHT22;31474;45.332;10.230;2022-09-06T15:14:21;31.60;90.40
45765;DHT22;31474;45.332;10.230;2022-09-06T15:16:48;31.60;90.10
45765;DHT22;31474;45.332;10.230;2022-09-06T15:19:15;31.50;90.10
45765;DHT22;31474;45.332;10.230;2022-09-06T15:21:41;31.50;90.00
45765;DHT22;31474;45.332;10.230;2022-09-06T15:24:07;31.50;90.50
45765;DHT22;31474;45.332;10.230;2022-09-06T15:26:33;31.50;90.40
45765;DHT22;31474;45.332;10.230;2022-09-06T15:29:02;31.40;90.20
45765;DHT22;31474;45.332;10.230;2022-09-06T15:31:28;31.40;90.30
45765;DHT22;31474;45.332;10.230;2022-09-06T15:33:53;31.40;90.60
45765;DHT22;31474;45.332;10.230;2022-09-06T15:36:20;31.40;90.40
45765;DHT22;31474;45.332;10.230;2022-09-06T15:38:50;31.40;90.50
45765;DHT22;31474;45.332;10.230;2022-09-06T15:41:19;31.40;90.20
45765;DHT22;31474;45.332;10.230;2022-09-06T15:43:47;31.30;90.00
45765;DHT22;31474;45.332;10.230;2022-09-06T15:46:15;31.30;90.50
45765;DHT22;31474;45.332;10.230;2022-09-06T15:48:43;31.30;90.60
45765;DHT22;31474;45.332;10.230;2022-09-06T15:51:11;31.20;90.30
45765;DHT22;31474;45.332;10.230;2022-09-06T15:53:37;31.20;90.50
45765;DHT22;31474;45.332;10.230;2022-09-06T15:56:05;31.20;90.40
45765;DHT22;31474;45.332;10.230;2022-09-06T15:58:31;31.10;90.50
45765;DHT22;31474;45.332;10.230;2022-09-06T16:01:00;31.10;90.70
45765;DHT22;31474;45.332;10.230;2022-09-06T16:03:26;31.10;90.10
45765;DHT22;31474;45.332;10.230;2022-09-06T16:05:52;31.10;90.50
45765;DHT22;31474;45.332;10.230;2022-09-06T16:08:17;31.10;90.60
45765;DHT22;31474;45.332;10.230;2022-09-06T16:10:44;31.10;90.60
45765;DHT22;31474;45.332;10.230;2022-09-06T16:13:10;31.00;90.30
45765;DHT22;31474;45.332;10.230;2022-09-06T16:15:36;31.00;90.60
45765;DHT22;31474;45.332;10.230;2022-09-06T16:18:01;30.90;90.80
45765;DHT22;31474;45.332;10.230;2022-09-06T16:20:30;30.90;90.80
45765;DHT22;31474;45.332;10.230;2022-09-06T16:22:56;30.90;90.80
45765;DHT22;31474;45.332;10.230;2022-09-06T16:25:22;30.80;90.50
45765;DHT22;31474;45.332;10.230;2022-09-06T16:27:48;30.80;90.80
45765;DHT22;31474;45.332;10.230;2022-09-06T16:30:14;30.80;90.80
45765;DHT22;31474;45.332;10.230;2022-09-06T16:32:40;30.80;90.80
45765;DHT22;31474;45.332;10.230;2022-09-06T16:35:06;30.80;90.70
45765;DHT22;31474;45.332;10.230;2022-09-06T16:37:32;30.70;90.90
45765;DHT22;31474;45.332;10.230;2022-09-06T16:39:58;30.60;90.80
45765;DHT22;31474;45.332;10.230;2022-09-06T16:42:23;30.50;91.00
45765;DHT22;31474;45.332;10.230;2022-09-06T16:44:49;30.50;91.00
45765;DHT22;31474;45.332;10.230;2022-09-06T16:47:15;30.50;91.20
45765;DHT22;31474;45.332;10.230;2022-09-06T16:49:41;30.40;91.20
45765;DHT22;31474;45.332;10.230;2022-09-06T16:52:06;30.40;91.10
45765;DHT22;31474;45.332;10.230;2022-09-06T16:54:32;30.30;91.30
45765;DHT22;31474;45.332;10.230;2022-09-06T16:56:59;30.30;91.40
45765;DHT22;31474;45.332;10.230;2022-09-06T16:59:25;30.20;91.50
45765;DHT22;31474;45.332;10.230;2022-09-06T17:01:51;30.30;91.70
45765;DHT22;31474;45.332;10.230;2022-09-06T17:04:18;30.20;91.70
45765;DHT22;31474;45.332;10.230;2022-09-06T17:06:44;30.20;91.70
45765;DHT22;31474;45.332;10.230;2022-09-06T17:09:11;30.20;91.90
45765;DHT22;31474;45.332;10.230;2022-09-06T17:11:37;30.10;91.90
45765;DHT22;31474;45.332;10.230;2022-09-06T17:14:04;30.10;92.10
45765;DHT22;31474;45.332;10.230;2022-09-06T17:16:30;30.10;92.00
45765;DHT22;31474;45.332;10.230;2022-09-06T17:19:15;30.00;92.00
45765;DHT22;31474;45.332;10.230;2022-09-06T17:21:40;30.00;92.00